Time;durP1;ratioP1;P1;durP2;ratioP2;P2;SDS_P1;SDS_P2;PMS_P1;PMS_P2;Temp;Humidity;BMP_temperature;BMP_pressure;BME280_temperature;BME280_humidity;BME280_pressure;Samples;Min_cycle;Max_cycle;Signal;HPM_P1;HPM_P2
2023/12/30 00:02:26;;;;;;;476.48;304.10;;;8.90;99.90;;;;;;4937776;29;20050;-75
2023/12/30 00:04:55;;;;;;;471.05;293.25;;;8.90;1.00;;;;;;4940538;29;20047;-76
2023/12/30 00:07:29;;;;;;;453.38;288.08;;;8.80;16.30;;;;;;4940240;29;20143;-75
2023/12/30 00:09:56;;;;;;;420.95;262.45;;;8.80;1.00;;;;;;4940526;29;20056;-76
2023/12/30 00:12:24;;;;;;;375.15;234.15;;;8.80;1.00;;;;;;4938145;29;20052;-77
2023/12/30 00:15:05;;;;;;;408.48;247.35;;;8.80;1.00;;;;;;4936644;29;20094;-77
2023/12/30 00:17:32;;;;;;;407.83;241.18;;;8.80;99.90;;;;;;4941738;29;20043;-75
2023/12/30 00:20:01;;;;;;;409.33;242.38;;;8.80;1.00;;;;;;4939053;29;20044;-75
2023/12/30 00:22:29;;;;;;;378.77;229.70;;;8.90;99.90;;;;;;4937988;29;20056;-77
2023/12/30 00:24:59;;;;;;;368.95;223.00;;;8.90;99.90;;;;;;4936952;29;20104;-75
2023/12/30 00:27:39;;;;;;;347.08;207.63;;;8.90;1.00;;;;;;4938023;29;20039;-75
2023/12/30 00:30:13;;;;;;;358.17;212.00;;;8.90;1.00;;;;;;4920293;29;20103;-77
2023/12/30 00:32:41;;;;;;;339.08;196.82;;;8.90;1.00;;;;;;4935868;29;20051;-74
2023/12/30 00:35:23;;;;;;;;;;;;;;;;;;;;;
2023/12/30 00:38:04;;;;;;;312.73;181.50;;;8.80;99.90;;;;;;4937084;29;20113;-77
2023/12/30 00:40:32;;;;;;;324.10;192.52;;;8.90;1.00;;;;;;4935247;29;20043;-77
2023/12/30 00:43:24;;;;;;;327.73;202.25;;;8.90;1.00;;;;;;4953779;29;20051;-77
2023/12/30 00:46:21;;;;;;;;;;;8.80;99.90;;;;;;4941959;29;20091;-77
2023/12/30 00:52:46;;;;;;;255.80;174.23;;;8.70;1.00;;;;;;4923789;29;20063;-76
2023/12/30 01:02:38;;;;;;;240.20;152.23;;;8.80;1.00;;;;;;4861712;29;20105;-76
2023/12/30 01:06:04;;;;;;;233.50;154.30;;;8.90;99.90;;;;;;4799134;29;20051;-77
2023/12/30 01:55:18;;;;;;;287.98;177.45;;;8.70;1.00;;;;;;4868849;29;20502;-76
2023/12/30 06:47:13;;;;;;;124.38;75.43;;;8.50;99.90;;;;;;5913505;24;20069;-80
2023/12/30 07:52:28;;;;;;;146.63;91.95;;;9.00;1.00;;;;;;5918605;24;20543;-78
2023/12/30 08:04:40;;;;;;;154.38;94.18;;;9.40;1.00;;;;;;6255000;22;20402;-78
2023/12/30 08:07:08;;;;;;;151.43;91.93;;;9.50;1.00;;;;;;6251422;22;20020;-81
2023/12/30 08:10:18;;;;;;;147.52;91.07;;;9.60;1.00;;;;;;6250503;22;20043;-79
2023/12/30 08:12:46;;;;;;;158.40;97.63;;;9.70;99.90;;;;;;6210214;22;20510;-75
2023/12/30 08:15:14;;;;;;;153.43;95.03;;;9.70;99.90;;;;;;6248756;22;20448;-75
2023/12/30 08:17:41;;;;;;;150.95;92.97;;;9.90;1.00;;;;;;6289239;22;20019;-77
2023/12/30 08:20:10;;;;;;;150.00;91.45;;;10.00;99.90;;;;;;6261635;22;20039;-79
2023/12/30 08:22:39;;;;;;;143.02;90.70;;;10.10;1.00;;;;;;6274355;22;20003;-77
2023/12/30 08:25:07;;;;;;;160.68;97.82;;;10.10;1.00;;;;;;6298739;22;20011;-77
2023/12/30 08:27:37;;;;;;;168.00;101.53;;;10.10;1.00;;;;;;6275502;22;20476;-79
2023/12/30 08:30:06;;;;;;;164.30;100.72;;;10.20;99.90;;;;;;6288007;22;20012;-75
2023/12/30 08:32:33;;;;;;;168.15;103.60;;;10.20;99.90;;;;;;6249000;22;20016;-76
2023/12/30 08:35:02;;;;;;;171.57;104.85;;;10.20;46.80;;;;;;6251381;22;20011;-77
2023/12/30 08:37:30;;;;;;;172.18;103.80;;;10.20;95.00;;;;;;6252084;22;20515;-76
2023/12/30 08:39:58;;;;;;;171.02;103.70;;;10.20;99.90;;;;;;6258950;22;20072;-76
2023/12/30 08:42:34;;;;;;;184.95;118.13;;;10.20;99.90;;;;;;6275619;22;20000;-77
2023/12/30 08:45:04;;;;;;;;;;;10.10;1.00;;;;;;6312939;22;20007;-77
2023/12/30 08:47:34;;;;;;;164.23;108.53;;;10.10;1.00;;;;;;6275456;22;19903;-77
2023/12/30 08:50:04;;;;;;;155.45;99.05;;;10.00;1.00;;;;;;6274662;22;20026;-82
2023/12/30 08:52:32;;;;;;;150.93;99.95;;;10.10;1.00;;;;;;6265625;22;20012;-79
2023/12/30 08:55:00;;;;;;;164.95;110.75;;;9.80;1.00;;;;;;6277874;22;20019;-79
2023/12/30 08:57:27;;;;;;;156.60;104.00;;;9.50;99.90;;;;;;6277279;22;20747;-80
2023/12/30 09:00:06;;;;;;;145.05;101.90;;;9.50;99.90;;;;;;6288804;22;20313;-83
2023/12/30 09:02:46;;;;;;;153.52;104.40;;;9.50;99.90;;;;;;6251191;22;20020;-80
2023/12/30 09:05:19;;;;;;;138.73;92.82;;;9.70;99.90;;;;;;6255207;22;20125;-81
2023/12/30 09:07:48;;;;;;;135.05;87.55;;;9.90;54.60;;;;;;6207496;23;20052;-80
2023/12/30 09:10:23;;;;;;;146.30;93.00;;;10.00;45.70;;;;;;6173703;23;20078;-80
2023/12/30 09:13:03;;;;;;;162.97;103.43;;;10.20;1.00;;;;;;6156799;23;20013;-81
2023/12/30 09:15:38;;;;;;;172.93;110.22;;;10.40;1.00;;;;;;6198448;23;20017;-79
2023/12/30 09:18:12;;;;;;;167.23;107.20;;;10.60;99.90;;;;;;6158405;23;20025;-82
2023/12/30 09:24:28;;;;;;;169.68;113.00;;;10.80;1.00;;;;;;6156673;23;20031;-80
2023/12/30 09:35:43;;;;;;;167.75;110.45;;;11.10;1.00;;;;;;5992197;23;20032;-81
2023/12/30 09:38:32;;;;;;;171.95;111.75;;;11.20;99.90;;;;;;6102148;23;20023;-80
2023/12/30 09:41:45;;;;;;;157.98;105.95;;;11.30;99.90;;;;;;6099587;23;20484;-80
2023/12/30 09:44:52;;;;;;;158.10;106.20;;;11.40;1.00;;;;;;6090560;23;20162;-79
2023/12/30 09:48:02;;;;;;;;;;;;;;;;;;;;;
2023/12/30 09:57:51;;;;;;;180.10;118.47;;;11.70;99.90;;;;;;6015293;23;20099;-79
2023/12/30 10:00:57;;;;;;;170.35;112.05;;;11.80;99.90;;;;;;6004095;23;20380;-76
2023/12/30 10:13:53;;;;;;;158.32;102.00;;;12.20;1.00;;;;;;5945321;23;20021;-80
2023/12/30 10:16:42;;;;;;;168.05;107.75;;;12.20;1.00;;;;;;5959093;24;20044;-79
2023/12/30 10:19:43;;;;;;;153.60;104.13;;;12.40;1.00;;;;;;5942849;23;20347;-78
2023/12/30 10:22:50;;;;;;;148.77;98.53;;;12.50;1.00;;;;;;5944319;23;20021;-78
2023/12/30 10:25:49;;;;;;;153.57;98.93;;;12.70;1.00;;;;;;5959406;24;20052;-80
2023/12/30 10:29:00;;;;;;;143.27;93.80;;;12.90;99.90;;;;;;5965566;23;20031;-80
2023/12/30 10:31:37;;;;;;;136.80;90.95;;;12.90;99.90;;;;;;6017545;23;20016;-79
2023/12/30 10:34:56;;;;;;;134.63;86.68;;;13.00;99.90;;;;;;6035157;23;20019;-79
2023/12/30 10:38:26;;;;;;;;;;;;;;;;;;;;;
2023/12/30 10:45:05;;;;;;;130.90;85.65;;;13.20;99.90;;;;;;6136742;23;20025;-79
2023/12/30 12:48:15;;;;;;;67.15;41.60;;;14.10;1.00;;;;;;5922078;24;20052;-79
2023/12/30 14:48:44;;;;;;;122.20;76.15;;;13.40;1.00;;;;;;6012430;23;20046;-81
2023/12/30 14:55:01;;;;;;;128.32;78.40;;;13.10;1.00;;;;;;5930289;24;20017;-81
2023/12/30 15:14:25;;;;;;;123.63;78.60;;;12.70;24.40;;;;;;5121612;27;20409;-80
2023/12/30 15:16:52;;;;;;;157.95;96.78;;;12.30;99.90;;;;;;5121059;28;20040;-81
2023/12/30 15:19:19;;;;;;;166.32;95.57;;;12.30;99.90;;;;;;5121491;28;20036;-79
2023/12/30 15:21:47;;;;;;;177.30;102.57;;;12.20;99.90;;;;;;5099817;28;20049;-79
2023/12/30 15:24:16;;;;;;;195.57;113.53;;;12.20;1.00;;;;;;5093593;28;20435;-80
2023/12/30 15:27:19;;;;;;;184.18;115.18;;;12.10;1.00;;;;;;5117353;22;21716;-78
2023/12/30 15:30:23;;;;;;;168.90;103.18;;;12.00;1.00;;;;;;5075740;28;20501;-79
2023/12/30 15:33:21;;;;;;;206.48;124.60;;;11.90;1.00;;;;;;5053565;28;20065;-77
2023/12/30 15:36:41;;;;;;;241.00;141.18;;;11.80;1.00;;;;;;5064256;28;20041;-77
2023/12/30 15:44:59;;;;;;;;;;;;;;;;;;;;;
2023/12/30 15:47:51;;;;;;;283.52;165.68;;;11.40;99.90;;;;;;5062719;28;20100;-78
2023/12/30 15:50:44;;;;;;;264.63;159.50;;;11.20;1.00;;;;;;5079688;28;20223;-79
2023/12/30 15:53:31;;;;;;;266.15;162.50;;;11.10;1.00;;;;;;5103366;27;20057;-78
2023/12/30 15:56:22;;;;;;;269.27;160.82;;;11.10;1.00;;;;;;5081308;28;20033;-77
2023/12/30 15:58:58;;;;;;;273.42;170.73;;;11.20;1.00;;;;;;5105281;27;20026;-78
2023/12/30 16:01:56;;;;;;;;;;;;;;;;;;;;;
2023/12/30 16:07:46;;;;;;;283.95;188.02;;;10.70;99.90;;;;;;5051262;28;20595;-79
2023/12/30 16:10:19;;;;;;;277.65;190.43;;;10.60;1.00;;;;;;5056660;28;20064;-79
2023/12/30 16:13:21;;;;;;;279.05;192.60;;;10.50;1.00;;;;;;5063811;28;20551;-77
2023/12/30 16:15:56;;;;;;;248.63;166.35;;;10.50;1.00;;;;;;5044143;28;20045;-78
2023/12/30 16:19:24;;;;;;;;;;;;;;;;;;;;;
2023/12/30 16:22:10;;;;;;;166.48;109.50;;;10.60;99.90;;;;;;5068384;28;20494;-78
2023/12/30 16:24:41;;;;;;;148.02;100.60;;;10.60;1.00;;;;;;5054865;28;20061;-78
2023/12/30 16:27:18;;;;;;;170.82;111.13;;;10.50;1.00;;;;;;5049827;28;20075;-77
2023/12/30 16:29:46;;;;;;;180.50;114.05;;;10.50;1.00;;;;;;5046067;28;20057;-76
2023/12/30 16:32:14;;;;;;;189.27;116.75;;;10.40;1.00;;;;;;5045663;28;20409;-78
2023/12/30 16:34:42;;;;;;;185.43;116.00;;;10.30;99.90;;;;;;5046096;28;20542;-78
2023/12/30 16:37:16;;;;;;;209.45;130.98;;;10.20;99.90;;;;;;5042077;28;20417;-78
2023/12/30 16:39:46;;;;;;;221.40;140.00;;;10.20;99.90;;;;;;5042572;28;20456;-77
2023/12/30 16:42:14;;;;;;;236.65;148.32;;;10.10;99.90;;;;;;5046168;28;20404;-77
2023/12/30 16:44:46;;;;;;;208.90;125.18;;;9.90;1.00;;;;;;5047194;28;20064;-78
2023/12/30 16:47:23;;;;;;;222.05;133.55;;;9.80;99.90;;;;;;5043175;28;20050;-78
2023/12/30 16:50:00;;;;;;;233.40;144.90;;;9.60;1.00;;;;;;5039216;28;20095;-77
2023/12/30 16:52:30;;;;;;;246.90;148.63;;;9.60;1.00;;;;;;5059196;28;20045;-77
2023/12/30 16:57:54;;;;;;;257.45;159.88;;;9.40;99.90;;;;;;5069342;28;20055;-78
2023/12/30 17:00:26;;;;;;;270.13;165.63;;;9.30;1.00;;;;;;5063188;28;20060;-77
2023/12/30 17:02:55;;;;;;;331.88;208.35;;;9.30;1.00;;;;;;5041864;28;20048;-79
2023/12/30 17:05:26;;;;;;;249.43;152.32;;;9.30;99.90;;;;;;5051180;28;20073;-78
2023/12/30 17:08:08;;;;;;;210.45;123.93;;;9.20;99.90;;;;;;5053155;28;20063;-77
2023/12/30 17:10:36;;;;;;;296.42;189.10;;;9.00;1.00;;;;;;5047543;28;20045;-77
2023/12/30 17:13:06;;;;;;;250.20;164.20;;;9.00;1.00;;;;;;5054210;28;20091;-77
2023/12/30 17:15:35;;;;;;;240.60;156.48;;;8.90;1.00;;;;;;5047325;28;20041;-78
2023/12/30 17:18:03;;;;;;;259.83;167.57;;;8.80;1.00;;;;;;5045168;28;20090;-78
2023/12/30 17:20:31;;;;;;;260.95;177.30;;;8.80;1.00;;;;;;5056633;28;20049;-77
2023/12/30 17:22:59;;;;;;;330.80;226.75;;;8.80;99.90;;;;;;5063359;28;20048;-75
2023/12/30 17:25:32;;;;;;;324.95;226.85;;;8.70;99.90;;;;;;5056398;28;20052;-79
2023/12/30 17:28:01;;;;;;;261.25;174.70;;;8.60;99.90;;;;;;5047764;28;20061;-77
2023/12/30 17:30:29;;;;;;;296.48;201.82;;;8.50;1.00;;;;;;5045402;28;20068;-77
2023/12/30 17:32:59;;;;;;;291.48;200.45;;;8.40;1.00;;;;;;5067579;28;20104;-78
2023/12/30 17:35:27;;;;;;;287.17;198.00;;;8.30;1.00;;;;;;5058013;28;20064;-77
2023/12/30 17:37:57;;;;;;;270.15;182.80;;;8.30;1.00;;;;;;5049386;28;20494;-76
2023/12/30 17:40:25;;;;;;;267.27;177.70;;;8.20;1.00;;;;;;5048424;28;20061;-77
2023/12/30 17:42:55;;;;;;;246.85;156.00;;;8.30;1.00;;;;;;5042458;28;20045;-77
2023/12/30 17:45:22;;;;;;;256.00;163.52;;;8.10;1.00;;;;;;5047319;28;20041;-77
2023/12/30 17:47:50;;;;;;;276.63;176.20;;;8.10;1.00;;;;;;5047447;28;20080;-77
2023/12/30 17:50:20;;;;;;;281.13;185.63;;;8.00;99.90;;;;;;5048585;28;20041;-77
2023/12/30 17:52:48;;;;;;;305.13;200.70;;;7.80;1.00;;;;;;5049337;28;20041;-80
2023/12/30 17:55:19;;;;;;;192.43;120.80;;;7.70;1.00;;;;;;5042087;28;20041;-77
2023/12/30 17:57:47;;;;;;;169.77;109.97;;;7.70;99.90;;;;;;5059106;28;20044;-77
2023/12/30 18:00:17;;;;;;;179.57;117.63;;;7.70;99.90;;;;;;5045825;28;20049;-78
2023/12/30 18:02:44;;;;;;;162.13;104.35;;;7.70;1.00;;;;;;5069317;28;20045;-76
2023/12/30 18:05:14;;;;;;;191.82;118.80;;;7.70;99.90;;;;;;5045262;28;20053;-78
2023/12/30 18:07:42;;;;;;;192.13;119.40;;;7.70;99.90;;;;;;5044263;28;20049;-76
2023/12/30 18:10:13;;;;;;;232.23;138.90;;;7.80;1.00;;;;;;5043872;28;20049;-77
2023/12/30 18:12:41;;;;;;;224.55;140.20;;;7.70;1.00;;;;;;5049202;28;20069;-78
2023/12/30 18:15:10;;;;;;;165.45;102.05;;;7.50;1.00;;;;;;5052153;28;20061;-78
2023/12/30 18:17:43;;;;;;;182.38;108.38;;;7.50;1.00;;;;;;5062380;28;20048;-77
2023/12/30 18:20:14;;;;;;;175.32;106.18;;;7.50;99.90;;;;;;5063043;28;20045;-79
2023/12/30 18:22:48;;;;;;;236.25;137.18;;;7.50;99.90;;;;;;5049331;28;20115;-77
2023/12/30 18:25:21;;;;;;;222.93;132.55;;;7.30;99.90;;;;;;5048540;28;20041;-77
2023/12/30 18:27:50;;;;;;;256.52;149.00;;;7.20;1.00;;;;;;5037362;28;20148;-77
2023/12/30 18:30:19;;;;;;;238.88;137.60;;;7.00;1.00;;;;;;5047280;28;20056;-77
2023/12/30 18:32:48;;;;;;;252.45;141.00;;;7.00;57.00;;;;;;5045165;28;20045;-78
2023/12/30 18:35:18;;;;;;;247.05;138.25;;;7.00;1.00;;;;;;5048938;28;20040;-77
2023/12/30 18:37:45;;;;;;;189.80;110.07;;;7.00;1.00;;;;;;5046455;28;20060;-77
2023/12/30 18:40:13;;;;;;;168.57;97.97;;;7.00;1.00;;;;;;5047712;28;20045;-78
2023/12/30 18:42:44;;;;;;;220.93;124.32;;;6.90;1.00;;;;;;5046465;28;20045;-75
2023/12/30 18:45:14;;;;;;;199.68;117.85;;;6.80;99.90;;;;;;5048091;28;20067;-77
2023/12/30 18:47:41;;;;;;;220.73;127.22;;;6.80;99.90;;;;;;5053908;28;20041;-75
2023/12/30 18:50:15;;;;;;;217.75;121.50;;;6.70;99.90;;;;;;5060843;28;20046;-77
2023/12/30 18:52:44;;;;;;;216.25;126.43;;;6.50;99.90;;;;;;5080434;28;20030;-77
2023/12/30 18:55:14;;;;;;;207.35;126.28;;;6.40;98.60;;;;;;5061496;28;20049;-78
2023/12/30 18:57:48;;;;;;;173.45;111.82;;;6.40;1.00;;;;;;5047652;28;20490;-77
2023/12/30 19:00:40;;;;;;;173.65;112.47;;;6.40;1.00;;;;;;5052744;28;20053;-76
2023/12/30 19:03:15;;;;;;;158.98;102.97;;;6.30;99.90;;;;;;5075468;28;20136;-78
2023/12/30 19:05:45;;;;;;;170.20;106.27;;;6.20;1.00;;;;;;5055115;28;20053;-79
2023/12/30 19:08:17;;;;;;;194.93;120.85;;;6.20;99.90;;;;;;5056802;28;20296;-76
2023/12/30 19:10:45;;;;;;;206.43;126.55;;;6.30;99.90;;;;;;5056695;28;20049;-78
2023/12/30 19:13:13;;;;;;;213.60;129.30;;;6.40;1.00;;;;;;5054804;28;20049;-77
2023/12/30 19:15:42;;;;;;;220.65;136.65;;;6.40;99.90;;;;;;5068022;28;20053;-79
2023/12/30 19:18:13;;;;;;;236.15;141.13;;;6.40;99.90;;;;;;5049248;28;20049;-77
2023/12/30 19:20:44;;;;;;;224.48;141.93;;;6.40;1.00;;;;;;5047949;28;20052;-76
2023/12/30 19:23:12;;;;;;;208.85;131.32;;;6.40;1.00;;;;;;5071167;28;20053;-76
2023/12/30 19:25:45;;;;;;;217.13;135.02;;;6.30;99.90;;;;;;5039912;28;20056;-78
2023/12/30 19:28:19;;;;;;;239.20;150.27;;;6.30;1.00;;;;;;5045215;28;20109;-76
2023/12/30 19:30:51;;;;;;;234.35;146.43;;;6.20;1.00;;;;;;5041754;28;20669;-76
2023/12/30 19:36:45;;;;;;;208.93;133.77;;;5.90;1.00;;;;;;5040677;28;20045;-75
2023/12/30 19:39:17;;;;;;;221.73;136.55;;;5.90;99.90;;;;;;5038976;28;20052;-76
2023/12/30 19:41:53;;;;;;;220.18;133.15;;;5.70;99.90;;;;;;5061156;28;20048;-76
2023/12/30 19:44:30;;;;;;;257.23;161.38;;;5.70;99.90;;;;;;5044572;28;20402;-77
2023/12/30 19:47:07;;;;;;;271.38;159.43;;;5.80;99.90;;;;;;5070658;28;20139;-77
2023/12/30 19:49:42;;;;;;;300.75;192.70;;;5.90;1.00;;;;;;5048934;28;20140;-78
2023/12/30 19:52:30;;;;;;;243.50;148.48;;;5.80;99.90;;;;;;5061866;28;20045;-77
2023/12/30 19:55:12;;;;;;;265.55;171.38;;;5.70;99.90;;;;;;5051763;28;20116;-77
2023/12/30 19:57:48;;;;;;;289.00;174.82;;;5.60;98.90;;;;;;5057100;28;20045;-77
2023/12/30 20:00:31;;;;;;;282.23;168.98;;;5.70;99.90;;;;;;5055012;28;20038;-78
2023/12/30 20:03:13;;;;;;;;;;;;;;;;;;;;;
2023/12/30 20:05:59;;;;;;;334.98;184.90;;;5.60;1.00;;;;;;5048129;28;20045;-77
2023/12/30 20:08:53;;;;;;;285.40;162.45;;;5.60;99.90;;;;;;5047170;28;20417;-76
2023/12/30 20:11:24;;;;;;;266.40;157.98;;;5.60;99.90;;;;;;5046317;28;20140;-76
2023/12/30 20:14:02;;;;;;;268.40;157.73;;;5.60;1.00;;;;;;5046513;28;20103;-77
2023/12/30 20:16:46;;;;;;;210.80;124.38;;;5.60;1.00;;;;;;5046845;28;20400;-79
2023/12/30 20:19:16;;;;;;;217.73;128.38;;;5.60;99.90;;;;;;5049228;28;20045;-76
2023/12/30 20:22:04;;;;;;;235.95;139.55;;;5.60;99.90;;;;;;5049551;28;20068;-78
2023/12/30 20:24:40;;;;;;;272.52;158.70;;;5.50;1.00;;;;;;5048069;28;20063;-77
2023/12/30 20:27:12;;;;;;;280.08;160.73;;;5.40;99.90;;;;;;5045924;28;20512;-77
2023/12/30 20:29:45;;;;;;;268.23;157.65;;;5.30;99.90;;;;;;5060753;28;20056;-78
2023/12/30 20:32:16;;;;;;;281.45;166.55;;;5.40;1.00;;;;;;5073972;28;20041;-77
2023/12/30 20:34:45;;;;;;;292.95;179.73;;;5.30;1.00;;;;;;5056448;28;20060;-77
2023/12/30 20:37:15;;;;;;;309.88;181.70;;;5.10;99.90;;;;;;5058339;28;20115;-79
2023/12/30 20:39:48;;;;;;;274.80;154.88;;;5.10;95.60;;;;;;5043273;28;20405;-78
2023/12/30 20:42:27;;;;;;;254.02;147.02;;;5.20;99.90;;;;;;5044906;28;20068;-77
2023/12/30 20:44:58;;;;;;;231.38;134.85;;;5.20;99.90;;;;;;5068091;28;20593;-77
2023/12/30 20:47:32;;;;;;;212.70;124.05;;;5.10;1.00;;;;;;5071306;28;20033;-77
2023/12/30 20:49:59;;;;;;;200.70;115.85;;;4.90;1.00;;;;;;5040278;28;20057;-77
2023/12/30 20:52:35;;;;;;;173.18;104.15;;;4.80;99.90;;;;;;5046573;28;20041;-78
2023/12/30 20:55:07;;;;;;;172.15;101.10;;;4.80;1.00;;;;;;5047872;28;20064;-77
2023/12/30 20:57:48;;;;;;;172.73;101.70;;;4.80;1.00;;;;;;5039895;28;20099;-77
2023/12/30 21:00:22;;;;;;;193.45;113.70;;;4.80;48.00;;;;;;5044693;28;20038;-77
2023/12/30 21:02:55;;;;;;;227.63;132.05;;;4.90;99.90;;;;;;5046324;28;20037;-78
2023/12/30 21:05:44;;;;;;;228.27;137.57;;;4.90;38.40;;;;;;5046700;28;20453;-76
2023/12/30 21:08:18;;;;;;;251.88;152.93;;;4.90;1.00;;;;;;5060596;28;20293;-78
2023/12/30 21:10:49;;;;;;;263.95;164.43;;;4.90;1.00;;;;;;5064180;28;20053;-77
2023/12/30 21:13:23;;;;;;;286.42;181.88;;;4.90;1.00;;;;;;5043581;28;20056;-75
2023/12/30 21:16:02;;;;;;;255.13;158.35;;;4.80;99.90;;;;;;5037442;28;20045;-76
2023/12/30 21:18:33;;;;;;;290.48;185.00;;;4.70;99.90;;;;;;5040757;28;20391;-76
2023/12/30 21:21:11;;;;;;;289.90;174.27;;;4.60;1.00;;;;;;5042444;28;20500;-76
2023/12/30 21:23:41;;;;;;;;;;;4.60;1.00;;;;;;5043368;28;20496;-76
2023/12/30 21:26:22;;;;;;;324.80;194.52;;;4.60;1.00;;;;;;5045156;28;19924;-77
2023/12/30 21:28:52;;;;;;;329.95;202.70;;;4.60;1.00;;;;;;5037260;28;20558;-77
2023/12/30 21:31:31;;;;;;;405.15;252.65;;;4.60;1.00;;;;;;5066457;28;20110;-77
2023/12/30 21:34:12;;;;;;;364.50;217.75;;;4.60;1.00;;;;;;5064272;28;20060;-78
2023/12/30 21:36:47;;;;;;;301.77;183.73;;;4.50;99.90;;;;;;5066427;28;20113;-77
2023/12/30 21:39:17;;;;;;;304.60;184.48;;;4.50;1.00;;;;;;5057273;28;20038;-75
2023/12/30 21:41:51;;;;;;;313.35;187.65;;;4.60;1.00;;;;;;5047196;28;20512;-76
2023/12/30 21:44:23;;;;;;;306.10;178.90;;;4.60;1.00;;;;;;5068888;28;20051;-79
2023/12/30 21:46:59;;;;;;;293.38;176.40;;;4.60;99.90;;;;;;5045297;28;20087;-78
2023/12/30 21:49:31;;;;;;;310.30;180.60;;;4.50;1.00;;;;;;5056495;28;20046;-76
2023/12/30 21:52:01;;;;;;;289.45;171.48;;;4.50;1.00;;;;;;5047375;28;20037;-78
2023/12/30 21:54:39;;;;;;;282.23;171.98;;;4.50;1.00;;;;;;5045465;28;20052;-78
2023/12/30 21:57:11;;;;;;;291.02;173.77;;;4.50;1.00;;;;;;5041160;28;20041;-78
2023/12/30 21:59:43;;;;;;;327.33;198.30;;;4.50;1.00;;;;;;5043712;28;20049;-76
2023/12/30 22:02:13;;;;;;;316.88;185.52;;;4.50;1.00;;;;;;5044380;28;20048;-75
2023/12/30 22:04:42;;;;;;;283.95;171.13;;;4.40;99.90;;;;;;5047371;28;20135;-76
2023/12/30 22:07:12;;;;;;;271.50;165.60;;;4.40;1.00;;;;;;5041602;28;20040;-77
2023/12/30 22:09:41;;;;;;;320.50;197.88;;;4.30;1.00;;;;;;5038486;28;20091;-76
2023/12/30 22:12:12;;;;;;;333.83;208.15;;;4.30;1.00;;;;;;5042886;28;20033;-78
2023/12/30 22:14:39;;;;;;;381.85;235.85;;;4.30;99.90;;;;;;5039650;28;20454;-76
2023/12/30 22:17:08;;;;;;;393.33;246.43;;;4.30;1.00;;;;;;5041099;28;20060;-75
2023/12/30 22:19:38;;;;;;;309.20;191.60;;;4.20;99.90;;;;;;5041344;28;20049;-75
2023/12/30 22:22:08;;;;;;;279.20;173.25;;;4.20;99.90;;;;;;5036129;28;20050;-76
2023/12/30 22:24:36;;;;;;;297.85;183.88;;;4.20;1.00;;;;;;5036078;28;20098;-76
2023/12/30 22:27:07;;;;;;;309.90;188.25;;;4.10;1.00;;;;;;5051630;28;20069;-78
2023/12/30 22:29:37;;;;;;;329.23;202.32;;;4.00;1.00;;;;;;5047956;28;20037;-76
2023/12/30 22:32:08;;;;;;;317.30;195.90;;;4.00;99.90;;;;;;5045816;28;20080;-76
2023/12/30 22:34:39;;;;;;;316.73;193.77;;;3.90;99.90;;;;;;5043867;28;20045;-76
2023/12/30 22:37:11;;;;;;;327.98;201.27;;;3.90;1.00;;;;;;5058481;28;20049;-76
2023/12/30 22:39:57;;;;;;;328.02;194.88;;;3.90;1.00;;;;;;5041940;28;20041;-76
2023/12/30 22:42:28;;;;;;;329.30;195.40;;;3.90;1.00;;;;;;5056892;28;20140;-75
2023/12/30 22:44:59;;;;;;;313.95;184.93;;;4.00;1.00;;;;;;5037781;28;20134;-75
2023/12/30 22:47:32;;;;;;;300.13;173.75;;;4.00;1.00;;;;;;5065969;28;20425;-75
2023/12/30 22:50:04;;;;;;;314.73;183.77;;;4.00;1.00;;;;;;5044770;28;20423;-76
2023/12/30 22:52:35;;;;;;;363.08;215.25;;;3.90;99.90;;;;;;5039835;28;20421;-76
2023/12/30 22:55:03;;;;;;;326.88;195.95;;;3.90;99.90;;;;;;5041598;28;20052;-75
2023/12/30 22:57:34;;;;;;;326.20;194.48;;;3.80;1.00;;;;;;5043303;28;20041;-76
2023/12/30 23:00:10;;;;;;;320.58;189.07;;;3.70;1.00;;;;;;5040352;28;20053;-77
2023/12/30 23:02:39;;;;;;;307.90;174.93;;;3.80;1.00;;;;;;5040596;28;20097;-75
2023/12/30 23:05:10;;;;;;;298.55;173.85;;;3.70;99.90;;;;;;5039139;28;20059;-75
2023/12/30 23:07:45;;;;;;;288.45;169.45;;;3.70;1.00;;;;;;5052357;28;20037;-77
2023/12/30 23:10:12;;;;;;;240.90;141.10;;;3.70;1.00;;;;;;5044507;28;20049;-75
2023/12/30 23:12:46;;;;;;;241.40;139.38;;;3.60;1.00;;;;;;5044053;28;20048;-76
2023/12/30 23:15:26;;;;;;;208.77;124.70;;;3.50;1.00;;;;;;5043935;28;20037;-74
2023/12/30 23:17:54;;;;;;;250.02;140.07;;;3.50;1.00;;;;;;5043898;28;20077;-76
2023/12/30 23:20:25;;;;;;;259.38;149.40;;;3.50;1.00;;;;;;5040607;28;20042;-75
2023/12/30 23:22:58;;;;;;;280.00;159.52;;;3.50;1.00;;;;;;5039461;28;20087;-75
2023/12/30 23:25:31;;;;;;;329.38;183.57;;;3.50;1.00;;;;;;5045745;28;20050;-74
2023/12/30 23:28:14;;;;;;;;;;;;;;;;;;;;;
2023/12/30 23:30:46;;;;;;;344.70;200.07;;;3.50;1.00;;;;;;5042657;28;20064;-74
2023/12/30 23:33:14;;;;;;;341.52;199.55;;;3.50;1.00;;;;;;5044006;28;20048;-77
2023/12/30 23:35:44;;;;;;;347.42;202.20;;;3.50;1.00;;;;;;5062760;28;20052;-74
2023/12/30 23:38:18;;;;;;;340.50;197.90;;;3.40;1.00;;;;;;5055194;28;20144;-74
2023/12/30 23:40:46;;;;;;;346.77;203.90;;;3.40;1.00;;;;;;5045187;28;20095;-75
2023/12/30 23:43:15;;;;;;;352.58;204.45;;;3.40;1.00;;;;;;5041446;28;20053;-76
2023/12/30 23:45:51;;;;;;;313.10;181.95;;;3.30;99.90;;;;;;5041989;28;20144;-77
2023/12/30 23:48:18;;;;;;;;;;;3.40;1.00;;;;;;5047690;28;20127;-76
2023/12/30 23:50:46;;;;;;;313.88;175.93;;;3.40;1.00;;;;;;5056833;28;20439;-78
2023/12/30 23:53:17;;;;;;;304.35;175.25;;;3.40;1.00;;;;;;5056502;28;20041;-75
2023/12/30 23:55:48;;;;;;;326.45;184.30;;;3.40;1.00;;;;;;5040058;28;20076;-74
2023/12/30 23:58:22;;;;;;;264.35;150.82;;;3.40;1.00;;;;;;5043491;28;20053;-75
